Time;durP1;ratioP1;P1;durP2;ratioP2;P2;SDS_P1;SDS_P2;PMS_P1;PMS_P2;Temp;Humidity;BMP_temperature;BMP_pressure;BME280_temperature;BME280_humidity;BME280_pressure;Samples;Min_cycle;Max_cycle;Signal;HPM_P1;HPM_P2
2021/05/02 00:00:28;;;;;;;1.75;1.65;;;;;;;5.66;84.93;96371.59;29373;239;63009;-67
2021/05/02 00:00:59;;;;;;;0.90;0.90;;;;;;;5.66;84.78;96371.59;29371;207;64009;-71
2021/05/02 00:01:31;;;;;;;2.00;1.48;;;;;;;5.65;84.96;96379.94;29373;277;63009;-62
2021/05/02 00:02:02;;;;;;;0.60;0.60;;;;;;;5.61;85.06;96376.19;29373;479;63004;-61
2021/05/02 00:02:35;;;;;;;3.03;2.85;;;;;;;5.62;85.31;96373.22;29373;245;63009;-59
2021/05/02 00:03:07;;;;;;;0.90;0.90;;;;;;;5.62;85.52;96378.59;29373;324;63004;-61
2021/05/02 00:03:39;;;;;;;0.73;0.73;;;;;;;5.60;85.59;96382.66;29373;346;63008;-65
2021/05/02 00:04:10;;;;;;;0.80;0.80;;;;;;;5.60;85.54;96377.25;29373;260;63005;-67
2021/05/02 00:04:42;;;;;;;0.60;0.60;;;;;;;5.59;85.70;96378.34;29373;316;63009;-65
2021/05/02 00:05:16;;;;;;;0.80;0.80;;;;;;;5.59;85.42;96387.22;29371;308;64009;-69
2021/05/02 00:05:47;;;;;;;0.88;0.88;;;;;;;5.59;85.50;96375.66;29373;288;63009;-62
2021/05/02 00:06:19;;;;;;;0.68;0.68;;;;;;;5.60;85.26;96385.34;29373;282;63005;-64
2021/05/02 00:06:50;;;;;;;1.45;1.45;;;;;;;5.58;85.07;96379.41;29373;337;63009;-67
2021/05/02 00:07:26;;;;;;;1.00;1.00;;;;;;;5.59;84.88;96381.84;29373;263;63005;-62
2021/05/02 00:08:01;;;;;;;0.60;0.60;;;;;;;5.59;85.06;96381.03;29373;340;63017;-67
2021/05/02 00:08:35;;;;;;;1.60;1.50;;;;;;;5.60;84.39;96386.16;29371;312;64009;-57
2021/05/02 00:09:08;;;;;;;0.70;0.70;;;;;;;5.59;84.46;96387.22;29373;244;63009;-61
2021/05/02 00:09:42;;;;;;;0.75;0.75;;;;;;;5.58;84.64;96384.81;29373;220;63004;-68
2021/05/02 00:10:19;;;;;;;2.30;2.20;;;;;;;5.56;85.15;96392.34;29373;391;63009;-63
2021/05/02 00:10:50;;;;;;;1.70;1.60;;;;;;;5.56;84.69;96382.38;29373;228;63004;-63
2021/05/02 00:11:22;;;;;;;1.12;1.02;;;;;;;5.56;84.61;96382.38;29373;270;63008;-59
2021/05/02 00:11:54;;;;;;;3.15;2.17;;;;;;;5.56;85.04;96387.75;29373;207;63005;-62
2021/05/02 00:12:26;;;;;;;1.58;1.58;;;;;;;5.57;85.01;96386.69;29373;264;63009;-60
2021/05/02 00:13:01;;;;;;;0.60;0.60;;;;;;;5.55;84.57;96386.16;29371;340;64009;-69
2021/05/02 00:13:32;;;;;;;0.70;0.70;;;;;;;5.53;84.48;96387.53;29373;219;63009;-64
2021/05/02 00:14:04;;;;;;;0.70;0.70;;;;;;;5.53;84.18;96382.97;29373;202;63005;-68
2021/05/02 00:14:35;;;;;;;1.20;1.20;;;;;;;5.55;84.00;96390.72;29373;335;63009;-63
2021/05/02 00:15:10;;;;;;;0.60;0.60;;;;;;;5.55;84.04;96385.34;29373;223;63010;-62
2021/05/02 00:15:41;;;;;;;1.17;1.17;;;;;;;5.55;84.30;96385.34;29395;284;63009;-70
2021/05/02 00:16:12;;;;;;;0.98;0.98;;;;;;;5.53;84.07;96391.03;29373;329;63007;-68
2021/05/02 00:16:44;;;;;;;0.90;0.90;;;;;;;5.53;83.86;96387.53;29373;215;63009;-68
2021/05/02 00:17:15;;;;;;;1.00;1.00;;;;;;;5.51;83.96;96389.69;29371;202;64009;-57
2021/05/02 00:17:48;;;;;;;1.90;1.80;;;;;;;5.52;83.69;96389.41;29373;232;63009;-67
2021/05/02 00:18:24;;;;;;;1.23;1.23;;;;;;;5.52;83.81;96386.72;29373;233;63004;-60
2021/05/02 00:18:56;;;;;;;0.80;0.80;;;;;;;5.54;83.38;96405.28;29373;352;63008;-65
2021/05/02 00:19:27;;;;;;;0.98;0.98;;;;;;;5.55;83.09;96394.22;29373;200;63005;-68
2021/05/02 00:20:02;;;;;;;0.90;0.90;;;;;;;5.55;83.18;96390.72;29373;202;63009;-68
2021/05/02 00:20:33;;;;;;;0.80;0.80;;;;;;;5.54;83.32;96383.75;29371;364;64015;-59
2021/05/02 00:21:13;;;;;;;1.23;1.20;;;;;;;5.51;83.36;96387.00;29373;269;63009;-63
2021/05/02 00:22:05;;;;;;;2.17;2.05;;;;;;;5.51;83.23;96387.00;29373;299;63005;-63
2021/05/02 00:22:43;;;;;;;;;;;;;;;5.50;83.06;96393.47;29974;983;28000;-67
2021/05/02 00:23:15;;;;;;;1.85;1.35;;;;;;;5.50;83.11;96398.84;29400;246;63009;-71
2021/05/02 00:23:47;;;;;;;2.20;1.95;;;;;;;5.50;82.85;96388.06;29373;338;63004;-60
2021/05/02 00:24:21;;;;;;;0.60;0.60;;;;;;;5.46;83.10;96393.19;29373;233;63009;-66
2021/05/02 00:24:53;;;;;;;4.40;3.37;;;;;;;5.47;82.68;96396.69;29373;291;63004;-67
2021/05/02 00:25:27;;;;;;;0.60;0.60;;;;;;;5.45;82.68;96393.47;29373;196;63009;-68
2021/05/02 00:25:58;;;;;;;0.60;0.60;;;;;;;5.45;82.90;96401.53;29371;236;64008;-61
2021/05/02 00:26:30;;;;;;;0.70;0.70;;;;;;;5.45;83.25;96396.97;29373;284;63008;-67
2021/05/02 00:27:02;;;;;;;0.68;0.68;;;;;;;5.45;83.29;96399.66;29373;283;63005;-62
2021/05/02 00:27:34;;;;;;;0.82;0.82;;;;;;;5.47;82.41;96402.06;29373;252;63009;-57
2021/05/02 00:28:07;;;;;;;0.60;0.60;;;;;;;5.47;82.61;96407.44;29373;226;63005;-65
2021/05/02 00:28:45;;;;;;;2.25;2.08;;;;;;;5.45;82.43;96404.22;29373;251;63009;-65
2021/05/02 00:29:17;;;;;;;2.05;1.95;;;;;;;5.42;82.59;96402.06;29371;242;64009;-60
2021/05/02 00:29:48;;;;;;;0.93;0.93;;;;;;;5.39;82.88;96404.22;29373;234;63009;-66
2021/05/02 00:30:23;;;;;;;0.60;0.60;;;;;;;5.41;82.79;96403.97;29373;299;63005;-62
2021/05/02 00:30:55;;;;;;;1.20;1.20;;;;;;;5.42;82.84;96407.47;29373;202;63009;-63
2021/05/02 00:31:26;;;;;;;1.20;1.20;;;;;;;5.39;82.95;96404.22;29371;236;64009;-62
2021/05/02 00:31:58;;;;;;;0.70;0.70;;;;;;;5.42;82.63;96407.47;29373;304;63009;-62
2021/05/02 00:32:31;;;;;;;0.98;0.98;;;;;;;5.41;82.91;96400.47;29373;208;63004;-62
2021/05/02 00:33:03;;;;;;;0.70;0.70;;;;;;;5.35;83.05;96403.16;29371;310;64013;-68
2021/05/02 00:33:35;;;;;;;0.80;0.80;;;;;;;5.36;82.82;96407.47;29373;310;63004;-59
2021/05/02 00:34:06;;;;;;;0.77;0.77;;;;;;;5.37;82.99;96405.56;29395;218;63009;-60
2021/05/02 00:34:39;;;;;;;1.23;1.23;;;;;;;5.35;83.33;96407.72;29395;240;63005;-61
2021/05/02 00:35:10;;;;;;;0.65;0.65;;;;;;;5.35;83.62;96405.84;29395;317;63009;-70
2021/05/02 00:35:42;;;;;;;0.70;0.70;;;;;;;5.34;83.53;96404.22;29373;202;63005;-61
2021/05/02 00:36:14;;;;;;;0.70;0.70;;;;;;;5.31;83.70;96407.47;29395;196;63009;-61
2021/05/02 00:36:46;;;;;;;1.75;1.65;;;;;;;5.31;83.97;96407.47;29371;324;64009;-62
2021/05/02 00:37:18;;;;;;;0.60;0.60;;;;;;;5.29;83.90;96409.63;29395;348;63009;-67
2021/05/02 00:37:50;;;;;;;0.60;0.60;;;;;;;5.33;83.91;96405.31;29373;218;63004;-67
2021/05/02 00:38:24;;;;;;;0.60;0.60;;;;;;;5.32;83.76;96411.75;29371;317;64013;-60
2021/05/02 00:38:56;;;;;;;0.88;0.88;;;;;;;5.33;83.36;96416.06;29373;306;63006;-64
2021/05/02 00:39:29;;;;;;;1.00;1.00;;;;;;;5.31;83.62;96412.84;29373;306;63009;-60
2021/05/02 00:40:01;;;;;;;1.05;1.05;;;;;;;5.35;83.84;96413.91;29373;342;63004;-60
2021/05/02 00:40:40;;;;;;;0.60;0.60;;;;;;;5.30;83.94;96411.22;29372;334;63008;-59
2021/05/02 00:41:28;;;;;;;0.60;0.60;;;;;;;5.28;83.84;96413.38;29373;230;63004;-67
2021/05/02 00:42:03;;;;;;;1.02;1.02;;;;;;;5.27;83.85;96421.72;29373;209;63009;-60
2021/05/02 00:42:37;;;;;;;0.80;0.80;;;;;;;5.27;83.82;96411.75;29373;351;63005;-62
2021/05/02 00:43:12;;;;;;;0.57;0.57;;;;;;;5.27;84.04;96413.66;29371;224;64013;-61
2021/05/02 00:43:58;;;;;;;0.60;0.60;;;;;;;5.29;83.87;96417.69;29373;209;63005;-63
2021/05/02 00:44:37;;;;;;;0.70;0.70;;;;;;;5.27;83.89;96411.75;29371;205;64013;-59
2021/05/02 00:45:13;;;;;;;0.60;0.60;;;;;;;5.25;84.00;96419.28;29373;225;63004;-68
2021/05/02 00:46:09;;;;;;;0.70;0.70;;;;;;;5.27;84.01;96419.03;29371;268;64013;-63
2021/05/02 00:46:57;;;;;;;0.98;0.98;;;;;;;5.26;82.98;96415.53;29373;356;63009;-61
2021/05/02 00:47:38;;;;;;;0.70;0.70;;;;;;;5.25;83.31;96421.97;29373;272;63004;-67
2021/05/02 00:48:35;;;;;;;0.60;0.60;;;;;;;5.25;83.29;96413.91;29395;322;63008;-58
2021/05/02 00:49:19;;;;;;;0.60;0.60;;;;;;;5.22;83.42;96419.84;29394;312;64009;-61
2021/05/02 00:50:16;;;;;;;0.90;0.90;;;;;;;5.28;82.96;96418.75;29373;203;63011;-63
2021/05/02 00:50:57;;;;;;;0.90;0.90;;;;;;;5.29;82.29;96420.38;29373;245;63005;-59
2021/05/02 00:51:37;;;;;;;0.60;0.60;;;;;;;5.29;82.69;96423.06;29395;255;63009;-62
2021/05/02 00:52:29;;;;;;;0.70;0.70;;;;;;;5.26;82.95;96418.22;29395;213;63005;-62
2021/05/02 00:53:20;;;;;;;0.60;0.60;;;;;;;5.24;82.92;96417.69;29371;321;64013;-59
2021/05/02 00:54:15;;;;;;;0.95;0.95;;;;;;;5.24;83.37;96422.25;29395;276;63004;-59
2021/05/02 00:54:50;;;;;;;0.70;0.70;;;;;;;5.22;83.34;96421.72;29394;199;64013;-63
2021/05/02 00:55:34;;;;;;;0.65;0.65;;;;;;;5.22;83.57;96425.22;29373;230;63004;-59
2021/05/02 00:56:17;;;;;;;0.70;0.70;;;;;;;5.21;83.77;96423.59;29373;239;63009;-63
2021/05/02 00:57:14;;;;;;;0.90;0.90;;;;;;;5.16;83.96;96426.31;29373;339;63005;-60
2021/05/02 00:57:54;;;;;;;1.67;1.60;;;;;;;5.17;83.75;96427.94;29373;216;63009;-64
2021/05/02 00:58:32;;;;;;;2.15;2.05;;;;;;;5.17;83.33;96425.25;29373;214;63004;-67
2021/05/02 00:59:06;;;;;;;0.60;0.60;;;;;;;5.19;83.53;96425.78;29373;280;63009;-62
2021/05/02 01:00:03;;;;;;;1.08;1.08;;;;;;;5.18;83.92;96424.16;29373;303;63005;-68
2021/05/02 01:00:38;;;;;;;1.23;1.15;;;;;;;5.18;83.14;96426.84;29371;206;64013;-60
2021/05/02 01:01:14;;;;;;;1.08;1.08;;;;;;;5.20;83.65;96424.69;29371;304;64009;-63
2021/05/02 01:01:52;;;;;;;1.20;1.20;;;;;;;5.23;83.27;96428.72;29373;207;63009;-66
2021/05/02 01:02:28;;;;;;;1.73;1.62;;;;;;;5.25;82.62;96418.50;29373;303;63004;-64
2021/05/02 01:03:03;;;;;;;0.73;0.73;;;;;;;5.17;82.88;96425.25;29373;215;63008;-68
2021/05/02 01:03:39;;;;;;;2.08;1.98;;;;;;;5.19;83.16;96431.16;29373;232;63005;-61
2021/05/02 01:04:11;;;;;;;0.70;0.70;;;;;;;5.21;83.42;96428.97;29373;215;63009;-65
2021/05/02 01:04:46;;;;;;;0.93;0.93;;;;;;;5.19;83.32;96423.09;29371;204;64009;-62
2021/05/02 01:05:20;;;;;;;0.60;0.60;;;;;;;5.17;83.36;96429.81;29373;263;63009;-61
2021/05/02 01:05:54;;;;;;;0.93;0.93;;;;;;;5.16;83.50;96431.69;29373;259;63005;-59
2021/05/02 01:06:30;;;;;;;0.70;0.70;;;;;;;5.16;83.56;96431.69;29373;305;63009;-61
2021/05/02 01:07:08;;;;;;;1.00;1.00;;;;;;;5.15;83.45;96430.09;29373;288;63005;-66
2021/05/02 01:07:42;;;;;;;0.70;0.70;;;;;;;5.17;83.76;96425.25;29373;285;63009;-65
2021/05/02 01:08:13;;;;;;;0.60;0.60;;;;;;;5.15;83.69;96434.66;29373;220;63004;-64
2021/05/02 01:08:49;;;;;;;1.35;1.35;;;;;;;5.14;83.49;96428.47;29371;245;64013;-59
2021/05/02 01:09:21;;;;;;;0.70;0.70;;;;;;;5.14;83.94;96428.47;29371;213;64009;-61
2021/05/02 01:09:56;;;;;;;0.62;0.62;;;;;;;5.15;83.78;96432.78;29372;298;63009;-60
2021/05/02 01:10:29;;;;;;;0.62;0.62;;;;;;;5.14;84.08;96439.22;29373;211;63004;-60
2021/05/02 01:11:03;;;;;;;0.60;0.60;;;;;;;5.15;84.24;96435.47;29373;196;63009;-67
2021/05/02 01:11:41;;;;;;;0.60;0.60;;;;;;;5.15;83.87;96427.37;29373;337;63005;-64
2021/05/02 01:12:17;;;;;;;0.95;0.95;;;;;;;5.18;83.75;96429.53;29373;303;63009;-62
2021/05/02 01:13:00;;;;;;;1.15;1.15;;;;;;;5.19;83.56;96439.22;29373;330;63005;-63
2021/05/02 01:13:36;;;;;;;0.60;0.60;;;;;;;5.17;84.04;96438.69;29373;293;63009;-60
2021/05/02 01:14:12;;;;;;;0.60;0.60;;;;;;;5.15;83.86;96438.16;29373;248;63005;-63
2021/05/02 01:14:52;;;;;;;0.60;0.60;;;;;;;5.14;83.96;96439.22;29371;325;64013;-63
2021/05/02 01:15:32;;;;;;;0.60;0.60;;;;;;;5.14;84.03;96441.91;29373;334;63004;-63
2021/05/02 01:16:07;;;;;;;0.60;0.60;;;;;;;5.16;83.81;96447.84;29395;199;63009;-68
2021/05/02 01:16:41;;;;;;;0.60;0.60;;;;;;;5.18;83.72;96439.50;29395;284;63004;-59
2021/05/02 01:17:15;;;;;;;0.60;0.60;;;;;;;5.14;83.90;96438.41;29373;213;63009;-60
2021/05/02 01:18:00;;;;;;;0.57;0.57;;;;;;;5.11;84.03;96450.53;29373;277;63004;-67
2021/05/02 01:18:33;;;;;;;0.60;0.60;;;;;;;5.12;83.85;96452.13;29373;261;63008;-62
2021/05/02 01:19:08;;;;;;;0.68;0.68;;;;;;;5.12;83.89;96445.94;29371;232;64009;-59
2021/05/02 01:19:40;;;;;;;0.60;0.60;;;;;;;5.11;83.73;96438.94;29373;197;63009;-58
2021/05/02 01:20:18;;;;;;;1.00;1.00;;;;;;;5.12;83.40;96448.63;29373;278;63005;-65
2021/05/02 01:20:50;;;;;;;0.95;0.95;;;;;;;5.14;83.41;96443.78;29373;325;63009;-67
2021/05/02 01:21:36;;;;;;;0.60;0.60;;;;;;;5.08;83.64;96434.91;29373;304;63005;-61
2021/05/02 01:22:16;;;;;;;2.42;2.25;;;;;;;5.07;83.99;96449.44;29373;244;63009;-59
2021/05/02 01:22:51;;;;;;;0.60;0.60;;;;;;;5.02;84.04;96452.94;29373;209;63004;-58
2021/05/02 01:23:25;;;;;;;0.90;0.90;;;;;;;5.02;84.32;96449.44;29373;294;63009;-62
2021/05/02 01:23:59;;;;;;;0.60;0.60;;;;;;;5.03;84.66;96456.44;29373;317;63004;-60
2021/05/02 01:24:31;;;;;;;1.37;1.27;;;;;;;5.05;84.29;96456.97;29371;347;64013;-70
2021/05/02 01:25:04;;;;;;;0.60;0.60;;;;;;;5.09;83.53;96447.28;29373;248;63004;-62
2021/05/02 01:25:35;;;;;;;1.62;1.55;;;;;;;5.07;83.64;96449.44;29371;257;64013;-67
2021/05/02 01:26:07;;;;;;;0.60;0.60;;;;;;;5.07;83.54;96454.81;29373;305;63005;-59
2021/05/02 01:26:44;;;;;;;0.60;0.60;;;;;;;5.04;84.24;96455.34;29373;309;63009;-65
2021/05/02 01:27:27;;;;;;;1.20;1.20;;;;;;;5.11;83.83;96450.53;29373;198;63005;-60
2021/05/02 01:27:59;;;;;;;1.15;1.15;;;;;;;5.13;83.37;96453.75;29373;346;63009;-63
2021/05/02 01:28:30;;;;;;;0.60;0.60;;;;;;;5.18;83.10;96453.75;29373;200;63005;-60
2021/05/02 01:29:02;;;;;;;1.40;1.33;;;;;;;5.19;83.47;96451.88;29373;326;63009;-66
2021/05/02 01:29:34;;;;;;;1.25;1.23;;;;;;;5.17;83.33;96452.13;29373;216;63005;-59
2021/05/02 01:30:10;;;;;;;0.65;0.65;;;;;;;5.16;83.56;96452.41;29373;304;63009;-64
2021/05/02 01:30:47;;;;;;;0.82;0.82;;;;;;;5.13;83.56;96459.13;29393;202;64009;-67
2021/05/02 01:31:21;;;;;;;2.08;1.08;;;;;;;5.16;83.08;96447.03;29394;221;64013;-65
2021/05/02 01:31:52;;;;;;;1.85;1.75;;;;;;;5.18;82.63;96453.75;29373;309;63004;-62
2021/05/02 01:32:26;;;;;;;0.60;0.60;;;;;;;5.19;82.67;96454.56;29373;324;63009;-62
2021/05/02 01:32:57;;;;;;;1.12;1.12;;;;;;;5.17;82.24;96446.75;29373;319;63004;-68
2021/05/02 01:33:30;;;;;;;0.90;0.90;;;;;;;5.19;82.04;96452.69;29373;196;63012;-70
2021/05/02 01:34:02;;;;;;;1.00;1.00;;;;;;;5.17;81.91;96449.44;29373;216;63005;-62
2021/05/02 01:34:33;;;;;;;0.93;0.93;;;;;;;5.18;81.98;96451.06;29373;222;63009;-62
2021/05/02 01:35:06;;;;;;;0.70;0.70;;;;;;;5.17;82.47;96452.13;29373;298;63005;-69
2021/05/02 01:35:40;;;;;;;1.17;1.08;;;;;;;5.18;82.75;96451.06;29373;197;63009;-62
2021/05/02 01:36:12;;;;;;;0.60;0.60;;;;;;;5.16;83.08;96458.59;29371;328;64009;-66
2021/05/02 01:36:44;;;;;;;0.80;0.80;;;;;;;5.16;83.16;96458.59;29372;342;63009;-61
2021/05/02 01:37:15;;;;;;;0.95;0.95;;;;;;;5.17;82.90;96465.59;29373;262;63005;-59
2021/05/02 01:37:49;;;;;;;0.60;0.60;;;;;;;5.11;83.17;96455.09;29373;327;63009;-59
2021/05/02 01:38:24;;;;;;;1.00;1.00;;;;;;;5.08;83.46;96461.00;29373;203;63000;-66
2021/05/02 01:38:57;;;;;;;0.70;0.70;;;;;;;5.07;83.82;96462.88;29373;225;63009;-58
2021/05/02 01:39:29;;;;;;;0.70;0.70;;;;;;;5.10;83.56;96465.03;29373;325;63004;-66
2021/05/02 01:40:01;;;;;;;0.60;0.60;;;;;;;5.11;83.36;96458.59;29373;208;63009;-58
2021/05/02 01:40:32;;;;;;;0.65;0.65;;;;;;;5.09;83.42;96460.72;29373;232;63004;-58
2021/05/02 01:41:04;;;;;;;0.60;0.60;;;;;;;5.08;83.77;96461.00;29371;354;64013;-57
2021/05/02 01:41:36;;;;;;;0.73;0.73;;;;;;;5.10;83.79;96461.53;29373;236;63005;-59
2021/05/02 01:42:08;;;;;;;0.65;0.65;;;;;;;5.07;84.10;96459.38;29373;237;63009;-59
2021/05/02 01:42:39;;;;;;;0.60;0.60;;;;;;;5.07;84.23;96457.50;29373;311;63005;-61
2021/05/02 01:43:11;;;;;;;0.60;0.60;;;;;;;5.06;84.14;96463.97;29373;350;63009;-61
2021/05/02 01:43:43;;;;;;;0.60;0.60;;;;;;;5.10;83.68;96465.03;29373;253;63009;-59
2021/05/02 01:44:14;;;;;;;0.95;0.95;;;;;;;5.11;83.45;96461.28;29373;218;63009;-60
2021/05/02 01:44:46;;;;;;;1.60;1.50;;;;;;;5.10;83.38;96469.59;29373;229;63004;-62
2021/05/02 01:45:17;;;;;;;1.98;1.87;;;;;;;5.12;83.13;96468.28;29373;308;63009;-62
2021/05/02 01:45:48;;;;;;;0.80;0.80;;;;;;;5.13;82.86;96459.13;29373;317;63008;-61
2021/05/02 01:46:36;;;;;;;1.00;1.00;;;;;;;5.15;82.96;96465.03;29371;238;64013;-65
2021/05/02 01:47:15;;;;;;;0.70;0.70;;;;;;;5.15;82.67;96467.72;29373;197;63004;-59
2021/05/02 01:47:50;;;;;;;0.60;0.60;;;;;;;5.09;83.04;96468.81;29373;249;63008;-60
2021/05/02 01:48:23;;;;;;;0.85;0.85;;;;;;;5.11;83.35;96474.72;29373;197;63004;-61
2021/05/02 01:48:54;;;;;;;0.60;0.60;;;;;;;5.09;83.52;96468.81;29373;198;63009;-58
2021/05/02 01:49:32;;;;;;;0.60;0.60;;;;;;;5.04;83.65;96460.72;29372;270;63005;-59
2021/05/02 01:50:07;;;;;;;2.35;2.25;;;;;;;5.04;83.86;96466.91;29372;231;63009;-67
2021/05/02 01:50:57;;;;;;;0.70;0.70;;;;;;;5.03;83.68;96470.69;29373;203;63005;-59
2021/05/02 01:51:32;;;;;;;0.70;0.70;;;;;;;5.02;83.97;96474.44;29371;204;64013;-58
2021/05/02 01:52:04;;;;;;;0.70;0.70;;;;;;;4.98;84.44;96467.16;29373;250;63005;-62
2021/05/02 01:52:52;;;;;;;1.08;1.08;;;;;;;5.00;84.46;96478.47;29373;198;63009;-60
2021/05/02 01:53:24;;;;;;;0.60;0.60;;;;;;;5.02;84.39;96474.44;29373;364;63004;-59
2021/05/02 01:53:58;;;;;;;0.70;0.70;;;;;;;4.99;84.47;96480.34;29373;308;63009;-59
2021/05/02 01:54:31;;;;;;;0.60;0.60;;;;;;;5.01;84.66;96477.41;29373;284;63004;-59
2021/05/02 01:55:04;;;;;;;0.60;0.60;;;;;;;5.03;84.47;96480.63;29373;333;63008;-59
2021/05/02 01:55:37;;;;;;;0.70;0.70;;;;;;;5.06;83.83;96480.09;29373;310;63005;-69
2021/05/02 01:56:13;;;;;;;0.95;0.95;;;;;;;5.03;83.73;96476.06;29373;355;63009;-57
2021/05/02 01:56:45;;;;;;;1.80;1.70;;;;;;;5.07;83.37;96473.63;29371;302;64009;-59
2021/05/02 01:57:25;;;;;;;0.60;0.60;;;;;;;5.05;83.47;96483.84;29373;344;63009;-66
2021/05/02 01:57:57;;;;;;;0.70;0.70;;;;;;;5.05;83.61;96481.16;29372;207;63005;-59
2021/05/02 01:58:30;;;;;;;1.70;1.70;;;;;;;5.03;83.65;96480.63;29373;268;63009;-66
2021/05/02 01:59:04;;;;;;;0.70;0.70;;;;;;;5.04;83.55;96484.94;29373;329;63005;-59
2021/05/02 01:59:38;;;;;;;1.40;1.40;;;;;;;5.01;83.84;96482.78;29373;341;63009;-58
2021/05/02 02:00:13;;;;;;;0.60;0.60;;;;;;;4.99;83.70;96484.91;29373;279;63004;-57
2021/05/02 02:00:53;;;;;;;0.60;0.60;;;;;;;4.95;84.20;96495.41;29371;294;64013;-61
2021/05/02 02:01:26;;;;;;;0.82;0.82;;;;;;;5.00;84.21;96484.66;29373;235;63004;-69
2021/05/02 02:01:58;;;;;;;0.60;0.60;;;;;;;5.02;83.99;96489.75;29373;275;63009;-69
2021/05/02 02:02:31;;;;;;;1.67;1.67;;;;;;;5.03;83.99;96486.00;29373;244;63004;-59
2021/05/02 02:03:03;;;;;;;0.80;0.80;;;;;;;4.98;83.95;96488.69;29373;322;63009;-58
2021/05/02 02:03:35;;;;;;;0.60;0.60;;;;;;;4.99;84.03;96485.72;29373;203;63005;-66
2021/05/02 02:04:08;;;;;;;0.60;0.60;;;;;;;5.01;84.23;96488.16;29373;244;63009;-61
2021/05/02 02:04:42;;;;;;;0.60;0.60;;;;;;;5.01;84.50;96488.16;29373;281;63005;-64
2021/05/02 02:05:15;;;;;;;0.60;0.60;;;;;;;5.02;84.19;96484.38;29373;217;63009;-62
2021/05/02 02:05:48;;;;;;;0.85;0.85;;;;;;;5.05;84.22;96490.03;29371;279;64009;-68
2021/05/02 02:06:20;;;;;;;0.70;0.70;;;;;;;5.05;83.86;96486.53;29373;338;63009;-63
2021/05/02 02:06:53;;;;;;;1.33;0.85;;;;;;;5.07;83.75;96487.09;29373;308;63005;-68
2021/05/02 02:07:25;;;;;;;3.75;3.42;;;;;;;5.05;84.03;96494.59;29373;237;63009;-64
2021/05/02 02:07:57;;;;;;;1.27;1.27;;;;;;;5.04;83.63;96490.31;29373;202;63004;-63
2021/05/02 02:08:29;;;;;;;0.60;0.60;;;;;;;5.04;83.77;96493.81;29373;224;63009;-59
2021/05/02 02:09:06;;;;;;;0.60;0.60;;;;;;;5.00;84.30;96494.59;29373;316;63004;-66
2021/05/02 02:09:39;;;;;;;0.68;0.68;;;;;;;5.01;84.23;96491.66;29373;197;63009;-61
2021/05/02 02:10:17;;;;;;;0.60;0.60;;;;;;;5.02;84.06;96490.56;29373;276;63004;-63
2021/05/02 02:10:50;;;;;;;7.75;2.95;;;;;;;5.03;83.24;96488.69;29371;363;64014;-68
2021/05/02 02:11:23;;;;;;;0.70;0.70;;;;;;;5.02;83.32;96489.75;29373;320;63005;-59
2021/05/02 02:11:55;;;;;;;0.70;0.70;;;;;;;4.97;83.98;96489.75;29373;218;63009;-61
2021/05/02 02:12:26;;;;;;;0.70;0.70;;;;;;;4.96;84.12;96485.44;29373;245;63005;-60
2021/05/02 02:12:58;;;;;;;1.77;1.67;;;;;;;5.00;83.71;96491.91;29373;375;63009;-62
2021/05/02 02:13:30;;;;;;;0.98;0.98;;;;;;;5.01;83.63;96493.53;29372;303;63005;-61
2021/05/02 02:14:04;;;;;;;0.60;0.60;;;;;;;5.01;83.46;96499.72;29371;206;64013;-68
2021/05/02 02:14:39;;;;;;;0.60;0.60;;;;;;;5.00;83.58;96503.47;29373;301;63005;-59
2021/05/02 02:15:12;;;;;;;0.60;0.60;;;;;;;4.99;84.15;96496.47;29373;221;63009;-60
2021/05/02 02:15:45;;;;;;;0.77;0.77;;;;;;;4.99;84.18;96490.28;29373;221;63018;-60
2021/05/02 02:16:16;;;;;;;0.80;0.80;;;;;;;4.98;83.94;96496.75;29373;226;63009;-62
2021/05/02 02:16:48;;;;;;;0.70;0.70;;;;;;;4.98;84.18;96504.81;29373;324;63004;-64
2021/05/02 02:17:20;;;;;;;0.60;0.60;;;;;;;4.93;84.30;96497.53;29371;351;64013;-59
2021/05/02 02:17:52;;;;;;;1.17;1.10;;;;;;;4.96;84.41;96496.19;29373;340;63004;-64
2021/05/02 02:18:23;;;;;;;0.70;0.70;;;;;;;4.98;84.58;96496.75;29373;240;63009;-62
2021/05/02 02:18:55;;;;;;;1.12;1.12;;;;;;;5.01;84.22;96501.59;29373;277;63005;-68
2021/05/02 02:19:26;;;;;;;1.42;1.35;;;;;;;5.02;83.72;96501.31;29373;206;63009;-69
2021/05/02 02:19:57;;;;;;;1.65;1.65;;;;;;;5.04;83.78;96495.69;29373;203;63005;-58
2021/05/02 02:20:34;;;;;;;1.50;1.45;;;;;;;5.01;84.07;96504.28;29373;253;63009;-62
2021/05/02 02:21:09;;;;;;;0.60;0.60;;;;;;;4.99;84.63;96506.44;29373;216;63005;-58
2021/05/02 02:21:43;;;;;;;0.65;0.65;;;;;;;4.94;84.63;96501.03;29371;209;64013;-59
2021/05/02 02:22:17;;;;;;;0.62;0.62;;;;;;;4.93;84.87;96496.72;29373;350;63005;-65
2021/05/02 02:22:54;;;;;;;1.00;1.00;;;;;;;4.91;84.80;96504.25;29373;235;63009;-59
2021/05/02 02:23:29;;;;;;;0.60;0.60;;;;;;;4.91;84.82;96501.56;29373;202;63004;-59
2021/05/02 02:24:02;;;;;;;0.60;0.60;;;;;;;4.91;85.06;96501.56;29373;336;63009;-62
2021/05/02 02:25:00;;;;;;;0.60;0.60;;;;;;;4.88;85.17;96510.16;29373;196;63004;-58
2021/05/02 02:25:39;;;;;;;0.60;0.60;;;;;;;4.86;85.61;96509.63;29373;252;63008;-62
2021/05/02 02:26:26;;;;;;;1.55;0.90;;;;;;;4.86;85.42;96507.72;29373;285;63005;-63
2021/05/02 02:27:00;;;;;;;0.80;0.80;;;;;;;4.88;85.57;96504.78;29371;215;64014;-59
2021/05/02 02:27:32;;;;;;;1.30;1.08;;;;;;;4.90;85.58;96508.00;29373;212;63005;-61
2021/05/02 02:28:09;;;;;;;0.93;0.93;;;;;;;4.93;85.31;96502.09;29373;221;63009;-60
2021/05/02 02:28:42;;;;;;;1.65;1.52;;;;;;;4.92;85.49;96505.88;29372;326;63005;-59
2021/05/02 02:29:15;;;;;;;0.68;0.68;;;;;;;4.93;85.21;96507.47;29373;221;63009;-65
2021/05/02 02:29:48;;;;;;;0.73;0.73;;;;;;;4.96;85.10;96506.97;29371;323;64009;-60
2021/05/02 02:30:20;;;;;;;1.17;1.17;;;;;;;4.96;84.88;96506.97;29373;223;63009;-69
2021/05/02 02:30:58;;;;;;;1.08;1.08;;;;;;;4.95;84.71;96511.53;29373;293;63004;-59
2021/05/02 02:31:34;;;;;;;0.80;0.80;;;;;;;4.92;84.85;96513.94;29371;253;64013;-60
2021/05/02 02:32:10;;;;;;;1.12;1.12;;;;;;;4.93;85.17;96507.47;29373;208;63004;-59
2021/05/02 02:32:47;;;;;;;0.70;0.70;;;;;;;4.93;85.25;96512.88;29373;209;63008;-61
2021/05/02 02:33:21;;;;;;;0.62;0.62;;;;;;;4.93;85.22;96510.19;29373;202;63001;-70
2021/05/02 02:33:52;;;;;;;0.70;0.70;;;;;;;4.93;85.08;96510.19;29371;236;64014;-63
2021/05/02 02:34:24;;;;;;;0.70;0.70;;;;;;;4.91;84.98;96515.00;29373;231;63005;-68
2021/05/02 02:34:57;;;;;;;0.80;0.80;;;;;;;4.92;84.97;96516.63;29373;344;63009;-68
2021/05/02 02:35:34;;;;;;;0.80;0.80;;;;;;;4.92;84.90;96516.63;29373;323;63005;-58
2021/05/02 02:36:06;;;;;;;0.70;0.70;;;;;;;4.85;84.81;96513.41;29373;328;63009;-60
2021/05/02 02:36:39;;;;;;;0.70;0.70;;;;;;;4.83;85.19;96518.25;29373;224;63004;-57
2021/05/02 02:37:17;;;;;;;0.70;0.70;;;;;;;4.81;85.56;96513.13;29373;202;63009;-65
2021/05/02 02:37:55;;;;;;;1.33;1.33;;;;;;;4.83;85.40;96512.88;29373;327;63004;-59
2021/05/02 02:38:28;;;;;;;0.70;0.70;;;;;;;4.84;85.71;96511.78;29371;224;64013;-62
2021/05/02 02:39:00;;;;;;;0.90;0.90;;;;;;;4.84;85.62;96519.84;29373;202;63004;-66
2021/05/02 02:39:32;;;;;;;0.70;0.70;;;;;;;4.87;85.54;96519.28;29373;318;63008;-63
2021/05/02 02:40:06;;;;;;;0.60;0.60;;;;;;;4.85;85.46;96516.09;29373;225;63004;-60
2021/05/02 02:40:38;;;;;;;2.55;2.35;;;;;;;4.83;85.58;96515.56;29373;196;63008;-62
2021/05/02 02:41:18;;;;;;;0.80;0.80;;;;;;;4.84;85.54;96514.47;29373;261;63005;-62
2021/05/02 02:41:51;;;;;;;0.98;0.98;;;;;;;4.85;85.55;96526.84;29372;318;64009;-66
2021/05/02 02:42:27;;;;;;;0.70;0.70;;;;;;;4.89;85.24;96525.22;29373;199;63005;-62
2021/05/02 02:42:58;;;;;;;0.80;0.80;;;;;;;4.94;85.21;96525.22;29371;206;64013;-68
2021/05/02 02:43:33;;;;;;;1.33;1.33;;;;;;;4.94;85.14;96525.22;29373;267;63005;-60
2021/05/02 02:44:09;;;;;;;0.95;0.95;;;;;;;4.96;85.07;96525.78;29373;354;63009;-68
2021/05/02 02:44:48;;;;;;;0.70;0.70;;;;;;;4.95;84.78;96524.97;29371;248;64009;-59
2021/05/02 02:45:19;;;;;;;0.70;0.70;;;;;;;4.95;84.89;96532.22;29373;303;63009;-60
2021/05/02 02:45:55;;;;;;;1.55;0.88;;;;;;;4.93;85.08;96529.00;29373;259;63004;-61
2021/05/02 02:46:27;;;;;;;1.33;1.25;;;;;;;4.87;85.44;96530.06;29373;245;63009;-59
2021/05/02 02:47:03;;;;;;;0.60;0.60;;;;;;;4.84;85.58;96530.59;29373;364;63004;-68
2021/05/02 02:47:59;;;;;;;0.70;0.70;;;;;;;4.87;85.53;96541.59;29373;226;63012;-61
2021/05/02 02:48:32;;;;;;;1.23;1.12;;;;;;;4.89;85.10;96533.28;29373;249;63005;-62
2021/05/02 02:49:05;;;;;;;0.70;0.70;;;;;;;4.88;85.34;96534.34;29373;341;63009;-70
2021/05/02 02:49:45;;;;;;;0.73;0.73;;;;;;;4.90;85.44;96534.91;29371;249;64009;-64